sensor_id;sensor_type;location;lat;lon;timestamp;pressure;altitude;pressure_sealevel;temperature
9985;BMP180;16737;50.932;6.780;2023-02-28T00:01:22;101461.00;;;5.40
9985;BMP180;16737;50.932;6.780;2023-02-28T00:03:49;101470.00;;;5.40
9985;BMP180;16737;50.932;6.780;2023-02-28T00:06:16;101449.00;;;5.40
9985;BMP180;16737;50.932;6.780;2023-02-28T00:08:44;101464.00;;;5.40
9985;BMP180;16737;50.932;6.780;2023-02-28T00:11:14;101462.00;;;5.30
9985;BMP180;16737;50.932;6.780;2023-02-28T00:13:43;101459.00;;;5.20
9985;BMP180;16737;50.932;6.780;2023-02-28T00:16:16;101464.00;;;5.30
9985;BMP180;16737;50.932;6.780;2023-02-28T00:18:45;101451.00;;;5.20
9985;BMP180;16737;50.932;6.780;2023-02-28T00:21:13;101468.00;;;5.20
9985;BMP180;16737;50.932;6.780;2023-02-28T00:23:41;101436.00;;;5.20
9985;BMP180;16737;50.932;6.780;2023-02-28T00:26:08;101461.00;;;5.10
9985;BMP180;16737;50.932;6.780;2023-02-28T00:28:34;101461.00;;;5.10
9985;BMP180;16737;50.932;6.780;2023-02-28T00:31:02;101467.00;;;5.10
9985;BMP180;16737;50.932;6.780;2023-02-28T00:33:29;101452.00;;;5.00
9985;BMP180;16737;50.932;6.780;2023-02-28T00:36:06;101457.00;;;5.00
9985;BMP180;16737;50.932;6.780;2023-02-28T00:38:34;101471.00;;;5.00
9985;BMP180;16737;50.932;6.780;2023-02-28T00:41:01;101456.00;;;5.00
9985;BMP180;16737;50.932;6.780;2023-02-28T00:43:32;101465.00;;;5.00
9985;BMP180;16737;50.932;6.780;2023-02-28T00:45:59;101447.00;;;5.00
9985;BMP180;16737;50.932;6.780;2023-02-28T00:48:26;101443.00;;;4.90
9985;BMP180;16737;50.932;6.780;2023-02-28T00:50:53;101460.00;;;4.90
9985;BMP180;16737;50.932;6.780;2023-02-28T00:53:21;101465.00;;;4.90
9985;BMP180;16737;50.932;6.780;2023-02-28T00:55:49;101438.00;;;4.80
9985;BMP180;16737;50.932;6.780;2023-02-28T00:58:16;101460.00;;;4.80
9985;BMP180;16737;50.932;6.780;2023-02-28T01:00:43;101467.00;;;4.80
9985;BMP180;16737;50.932;6.780;2023-02-28T01:03:15;101457.00;;;4.80
9985;BMP180;16737;50.932;6.780;2023-02-28T01:05:43;101463.00;;;4.70
9985;BMP180;16737;50.932;6.780;2023-02-28T01:08:10;101461.00;;;4.70
9985;BMP180;16737;50.932;6.780;2023-02-28T01:10:38;101464.00;;;4.70
9985;BMP180;16737;50.932;6.780;2023-02-28T01:13:05;101467.00;;;4.60
9985;BMP180;16737;50.932;6.780;2023-02-28T01:15:32;101464.00;;;4.60
9985;BMP180;16737;50.932;6.780;2023-02-28T01:18:02;101460.00;;;4.40
9985;BMP180;16737;50.932;6.780;2023-02-28T01:20:29;101461.00;;;4.60
9985;BMP180;16737;50.932;6.780;2023-02-28T01:22:56;101463.00;;;4.60
9985;BMP180;16737;50.932;6.780;2023-02-28T01:25:23;101465.00;;;4.50
9985;BMP180;16737;50.932;6.780;2023-02-28T01:27:51;101457.00;;;4.50
9985;BMP180;16737;50.932;6.780;2023-02-28T01:30:18;101472.00;;;4.50
9985;BMP180;16737;50.932;6.780;2023-02-28T01:32:45;101462.00;;;4.50
9985;BMP180;16737;50.932;6.780;2023-02-28T01:35:12;101456.00;;;4.50
9985;BMP180;16737;50.932;6.780;2023-02-28T01:37:39;101459.00;;;4.40
9985;BMP180;16737;50.932;6.780;2023-02-28T01:40:09;101458.00;;;4.40
9985;BMP180;16737;50.932;6.780;2023-02-28T01:42:38;101458.00;;;4.40
9985;BMP180;16737;50.932;6.780;2023-02-28T01:45:22;101452.00;;;4.40
9985;BMP180;16737;50.932;6.780;2023-02-28T01:47:55;101455.00;;;4.40
9985;BMP180;16737;50.932;6.780;2023-02-28T01:50:29;101455.00;;;4.40
9985;BMP180;16737;50.932;6.780;2023-02-28T01:53:04;101455.00;;;4.10
9985;BMP180;16737;50.932;6.780;2023-02-28T01:55:34;101451.00;;;4.30
9985;BMP180;16737;50.932;6.780;2023-02-28T01:58:05;101432.00;;;4.30
9985;BMP180;16737;50.932;6.780;2023-02-28T02:00:36;101443.00;;;4.20
9985;BMP180;16737;50.932;6.780;2023-02-28T02:03:08;101449.00;;;4.20
9985;BMP180;16737;50.932;6.780;2023-02-28T02:05:38;101439.00;;;4.20
9985;BMP180;16737;50.932;6.780;2023-02-28T02:08:10;101426.00;;;4.20
9985;BMP180;16737;50.932;6.780;2023-02-28T02:10:43;101436.00;;;4.20
9985;BMP180;16737;50.932;6.780;2023-02-28T02:13:32;101441.00;;;4.20
9985;BMP180;16737;50.932;6.780;2023-02-28T02:16:14;101434.00;;;4.20
9985;BMP180;16737;50.932;6.780;2023-02-28T02:18:47;101429.00;;;4.20
9985;BMP180;16737;50.932;6.780;2023-02-28T02:22:09;101437.00;;;4.20
9985;BMP180;16737;50.932;6.780;2023-02-28T02:25:18;101423.00;;;4.20
9985;BMP180;16737;50.932;6.780;2023-02-28T02:28:30;101422.00;;;4.20
9985;BMP180;16737;50.932;6.780;2023-02-28T02:31:23;101421.00;;;4.10
9985;BMP180;16737;50.932;6.780;2023-02-28T02:34:38;101413.00;;;4.10
9985;BMP180;16737;50.932;6.780;2023-02-28T02:37:16;101392.00;;;3.80
9985;BMP180;16737;50.932;6.780;2023-02-28T02:39:52;101410.00;;;4.10
9985;BMP180;16737;50.932;6.780;2023-02-28T02:42:29;101404.00;;;4.10
9985;BMP180;16737;50.932;6.780;2023-02-28T02:45:06;101403.00;;;4.10
9985;BMP180;16737;50.932;6.780;2023-02-28T02:47:37;101413.00;;;4.10
9985;BMP180;16737;50.932;6.780;2023-02-28T02:50:13;101423.00;;;4.10
9985;BMP180;16737;50.932;6.780;2023-02-28T02:52:45;101413.00;;;4.10
9985;BMP180;16737;50.932;6.780;2023-02-28T02:55:17;101412.00;;;3.80
9985;BMP180;16737;50.932;6.780;2023-02-28T02:57:48;101422.00;;;4.10
9985;BMP180;16737;50.932;6.780;2023-02-28T03:00:22;101412.00;;;4.10
9985;BMP180;16737;50.932;6.780;2023-02-28T03:02:54;101421.00;;;4.10
9985;BMP180;16737;50.932;6.780;2023-02-28T03:05:28;101412.00;;;4.10
9985;BMP180;16737;50.932;6.780;2023-02-28T03:07:57;101403.00;;;4.10
9985;BMP180;16737;50.932;6.780;2023-02-28T03:10:36;101422.00;;;4.10
9985;BMP180;16737;50.932;6.780;2023-02-28T03:13:38;101420.00;;;4.10
9985;BMP180;16737;50.932;6.780;2023-02-28T03:16:29;101418.00;;;4.10
9985;BMP180;16737;50.932;6.780;2023-02-28T03:19:16;101412.00;;;4.10
9985;BMP180;16737;50.932;6.780;2023-02-28T03:22:04;101413.00;;;4.00
9985;BMP180;16737;50.932;6.780;2023-02-28T03:24:43;101411.00;;;4.00
9985;BMP180;16737;50.932;6.780;2023-02-28T03:27:21;101408.00;;;4.00
9985;BMP180;16737;50.932;6.780;2023-02-28T03:29:58;101403.00;;;4.00
9985;BMP180;16737;50.932;6.780;2023-02-28T03:32:32;101417.00;;;4.00
9985;BMP180;16737;50.932;6.780;2023-02-28T03:35:06;101412.00;;;3.90
9985;BMP180;16737;50.932;6.780;2023-02-28T03:37:40;101411.00;;;3.90
9985;BMP180;16737;50.932;6.780;2023-02-28T03:40:12;101407.00;;;3.90
9985;BMP180;16737;50.932;6.780;2023-02-28T03:42:46;101384.00;;;3.80
9985;BMP180;16737;50.932;6.780;2023-02-28T03:45:18;101404.00;;;3.80
9985;BMP180;16737;50.932;6.780;2023-02-28T03:50:24;101323.00;;;3.70
9985;BMP180;16737;50.932;6.780;2023-02-28T03:53:02;101415.00;;;3.70
9985;BMP180;16737;50.932;6.780;2023-02-28T03:55:40;101408.00;;;3.60
9985;BMP180;16737;50.932;6.780;2023-02-28T03:58:20;101400.00;;;3.60
9985;BMP180;16737;50.932;6.780;2023-02-28T04:00:58;101398.00;;;3.60
9985;BMP180;16737;50.932;6.780;2023-02-28T04:03:35;101394.00;;;3.50
9985;BMP180;16737;50.932;6.780;2023-02-28T04:06:03;101398.00;;;3.50
9985;BMP180;16737;50.932;6.780;2023-02-28T04:08:32;101407.00;;;3.50
9985;BMP180;16737;50.932;6.780;2023-02-28T04:11:04;101412.00;;;3.50
9985;BMP180;16737;50.932;6.780;2023-02-28T04:13:33;101418.00;;;3.40
9985;BMP180;16737;50.932;6.780;2023-02-28T04:16:00;101406.00;;;3.40
9985;BMP180;16737;50.932;6.780;2023-02-28T04:18:27;101412.00;;;3.40
9985;BMP180;16737;50.932;6.780;2023-02-28T04:20:54;101411.00;;;3.40
9985;BMP180;16737;50.932;6.780;2023-02-28T04:23:21;101423.00;;;3.40
9985;BMP180;16737;50.932;6.780;2023-02-28T04:25:49;101405.00;;;3.40
9985;BMP180;16737;50.932;6.780;2023-02-28T04:28:16;101416.00;;;3.30
9985;BMP180;16737;50.932;6.780;2023-02-28T04:30:43;101405.00;;;3.30
9985;BMP180;16737;50.932;6.780;2023-02-28T04:33:10;101417.00;;;3.30
9985;BMP180;16737;50.932;6.780;2023-02-28T04:35:37;101414.00;;;3.30
9985;BMP180;16737;50.932;6.780;2023-02-28T04:38:04;101414.00;;;3.30
9985;BMP180;16737;50.932;6.780;2023-02-28T04:40:31;101410.00;;;3.30
9985;BMP180;16737;50.932;6.780;2023-02-28T04:42:59;101344.00;;;3.30
9985;BMP180;16737;50.932;6.780;2023-02-28T04:45:26;101416.00;;;3.30
9985;BMP180;16737;50.932;6.780;2023-02-28T04:47:55;101417.00;;;3.20
9985;BMP180;16737;50.932;6.780;2023-02-28T04:50:22;101428.00;;;3.20
9985;BMP180;16737;50.932;6.780;2023-02-28T04:52:49;101429.00;;;3.20
9985;BMP180;16737;50.932;6.780;2023-02-28T04:55:16;101431.00;;;3.20
9985;BMP180;16737;50.932;6.780;2023-02-28T04:57:43;101428.00;;;3.20
9985;BMP180;16737;50.932;6.780;2023-02-28T05:00:12;101437.00;;;3.10
9985;BMP180;16737;50.932;6.780;2023-02-28T05:02:42;101422.00;;;3.10
9985;BMP180;16737;50.932;6.780;2023-02-28T05:05:09;101431.00;;;3.10
9985;BMP180;16737;50.932;6.780;2023-02-28T05:07:36;101441.00;;;3.10
9985;BMP180;16737;50.932;6.780;2023-02-28T05:10:04;101432.00;;;3.10
9985;BMP180;16737;50.932;6.780;2023-02-28T05:12:31;101437.00;;;3.10
9985;BMP180;16737;50.932;6.780;2023-02-28T05:14:58;101436.00;;;3.00
9985;BMP180;16737;50.932;6.780;2023-02-28T05:17:28;101427.00;;;3.00
9985;BMP180;16737;50.932;6.780;2023-02-28T05:19:55;101427.00;;;3.00
9985;BMP180;16737;50.932;6.780;2023-02-28T05:22:22;101436.00;;;3.00
9985;BMP180;16737;50.932;6.780;2023-02-28T05:24:49;101434.00;;;3.00
9985;BMP180;16737;50.932;6.780;2023-02-28T05:27:15;101434.00;;;3.00
9985;BMP180;16737;50.932;6.780;2023-02-28T05:29:42;101397.00;;;3.00
9985;BMP180;16737;50.932;6.780;2023-02-28T05:32:11;101424.00;;;3.00
9985;BMP180;16737;50.932;6.780;2023-02-28T05:34:40;101423.00;;;3.00
9985;BMP180;16737;50.932;6.780;2023-02-28T05:37:12;101412.00;;;3.00
9985;BMP180;16737;50.932;6.780;2023-02-28T05:39:39;101426.00;;;2.90
9985;BMP180;16737;50.932;6.780;2023-02-28T05:42:06;101432.00;;;2.90
9985;BMP180;16737;50.932;6.780;2023-02-28T05:44:34;101433.00;;;2.90
9985;BMP180;16737;50.932;6.780;2023-02-28T05:47:01;101433.00;;;2.90
9985;BMP180;16737;50.932;6.780;2023-02-28T05:49:29;101430.00;;;2.60
9985;BMP180;16737;50.932;6.780;2023-02-28T05:51:57;101426.00;;;2.90
9985;BMP180;16737;50.932;6.780;2023-02-28T05:54:24;101434.00;;;2.90
9985;BMP180;16737;50.932;6.780;2023-02-28T05:56:51;101435.00;;;2.80
9985;BMP180;16737;50.932;6.780;2023-02-28T05:59:18;101431.00;;;2.80
9985;BMP180;16737;50.932;6.780;2023-02-28T06:01:46;101413.00;;;2.80
9985;BMP180;16737;50.932;6.780;2023-02-28T06:04:16;101344.00;;;2.80
9985;BMP180;16737;50.932;6.780;2023-02-28T06:06:44;101429.00;;;2.80
9985;BMP180;16737;50.932;6.780;2023-02-28T06:09:13;101426.00;;;2.80
9985;BMP180;16737;50.932;6.780;2023-02-28T06:11:40;101430.00;;;2.80
9985;BMP180;16737;50.932;6.780;2023-02-28T06:14:14;101417.00;;;2.80
9985;BMP180;16737;50.932;6.780;2023-02-28T06:16:42;101412.00;;;2.80
9985;BMP180;16737;50.932;6.780;2023-02-28T06:19:10;101432.00;;;2.80
9985;BMP180;16737;50.932;6.780;2023-02-28T06:21:38;101431.00;;;2.80
9985;BMP180;16737;50.932;6.780;2023-02-28T06:24:06;101443.00;;;2.80
9985;BMP180;16737;50.932;6.780;2023-02-28T06:26:35;101446.00;;;2.80
9985;BMP180;16737;50.932;6.780;2023-02-28T06:29:02;101449.00;;;2.80
9985;BMP180;16737;50.932;6.780;2023-02-28T06:31:29;101450.00;;;2.90
9985;BMP180;16737;50.932;6.780;2023-02-28T06:33:56;101455.00;;;2.90
9985;BMP180;16737;50.932;6.780;2023-02-28T06:36:23;101452.00;;;2.90
9985;BMP180;16737;50.932;6.780;2023-02-28T06:38:50;101453.00;;;2.90
9985;BMP180;16737;50.932;6.780;2023-02-28T06:41:21;101456.00;;;2.90
9985;BMP180;16737;50.932;6.780;2023-02-28T06:43:50;101461.00;;;3.00
9985;BMP180;16737;50.932;6.780;2023-02-28T06:46:18;101460.00;;;2.90
9985;BMP180;16737;50.932;6.780;2023-02-28T06:48:45;101461.00;;;3.00
9985;BMP180;16737;50.932;6.780;2023-02-28T06:51:15;101477.00;;;3.10
9985;BMP180;16737;50.932;6.780;2023-02-28T06:53:43;101471.00;;;3.00
9985;BMP180;16737;50.932;6.780;2023-02-28T06:56:12;101471.00;;;3.10
9985;BMP180;16737;50.932;6.780;2023-02-28T06:58:39;101479.00;;;3.10
9985;BMP180;16737;50.932;6.780;2023-02-28T07:01:08;101497.00;;;3.20
9985;BMP180;16737;50.932;6.780;2023-02-28T07:03:36;101492.00;;;3.20
9985;BMP180;16737;50.932;6.780;2023-02-28T07:06:05;101467.00;;;3.20
9985;BMP180;16737;50.932;6.780;2023-02-28T07:08:33;101504.00;;;3.30
9985;BMP180;16737;50.932;6.780;2023-02-28T07:11:00;101490.00;;;3.30
9985;BMP180;16737;50.932;6.780;2023-02-28T07:13:27;101488.00;;;3.40
9985;BMP180;16737;50.932;6.780;2023-02-28T07:15:56;101487.00;;;3.40
9985;BMP180;16737;50.932;6.780;2023-02-28T07:18:25;101496.00;;;3.50
9985;BMP180;16737;50.932;6.780;2023-02-28T07:20:53;101472.00;;;3.50
9985;BMP180;16737;50.932;6.780;2023-02-28T07:23:21;101494.00;;;3.60
9985;BMP180;16737;50.932;6.780;2023-02-28T07:25:49;101486.00;;;3.60
9985;BMP180;16737;50.932;6.780;2023-02-28T07:28:16;101509.00;;;3.70
9985;BMP180;16737;50.932;6.780;2023-02-28T07:30:43;101493.00;;;3.70
9985;BMP180;16737;50.932;6.780;2023-02-28T07:33:10;101494.00;;;3.80
9985;BMP180;16737;50.932;6.780;2023-02-28T07:35:39;101497.00;;;3.80
9985;BMP180;16737;50.932;6.780;2023-02-28T07:38:06;101492.00;;;3.90
9985;BMP180;16737;50.932;6.780;2023-02-28T07:40:36;101496.00;;;4.00
9985;BMP180;16737;50.932;6.780;2023-02-28T07:43:03;101490.00;;;4.10
9985;BMP180;16737;50.932;6.780;2023-02-28T07:45:31;101497.00;;;4.10
9985;BMP180;16737;50.932;6.780;2023-02-28T07:48:00;101502.00;;;4.20
9985;BMP180;16737;50.932;6.780;2023-02-28T07:50:27;101504.00;;;4.30
9985;BMP180;16737;50.932;6.780;2023-02-28T07:52:57;101507.00;;;4.40
9985;BMP180;16737;50.932;6.780;2023-02-28T07:55:24;101500.00;;;4.40
9985;BMP180;16737;50.932;6.780;2023-02-28T07:57:51;101508.00;;;4.50
9985;BMP180;16737;50.932;6.780;2023-02-28T08:00:19;101510.00;;;4.60
9985;BMP180;16737;50.932;6.780;2023-02-28T08:02:46;101506.00;;;4.70
9985;BMP180;16737;50.932;6.780;2023-02-28T08:05:13;101517.00;;;4.80
9985;BMP180;16737;50.932;6.780;2023-02-28T08:07:40;101518.00;;;4.80
9985;BMP180;16737;50.932;6.780;2023-02-28T08:10:10;101499.00;;;4.90
9985;BMP180;16737;50.932;6.780;2023-02-28T08:12:37;101515.00;;;5.00
9985;BMP180;16737;50.932;6.780;2023-02-28T08:15:05;101514.00;;;5.10
9985;BMP180;16737;50.932;6.780;2023-02-28T08:17:32;101519.00;;;5.20
9985;BMP180;16737;50.932;6.780;2023-02-28T08:19:58;101530.00;;;5.20
9985;BMP180;16737;50.932;6.780;2023-02-28T08:22:25;101521.00;;;5.30
9985;BMP180;16737;50.932;6.780;2023-02-28T08:24:52;101518.00;;;5.40
9985;BMP180;16737;50.932;6.780;2023-02-28T08:27:20;101521.00;;;5.50
9985;BMP180;16737;50.932;6.780;2023-02-28T08:29:48;101533.00;;;5.50
9985;BMP180;16737;50.932;6.780;2023-02-28T08:32:15;101528.00;;;5.60
9985;BMP180;16737;50.932;6.780;2023-02-28T08:34:41;101521.00;;;5.70
9985;BMP180;16737;50.932;6.780;2023-02-28T08:37:08;101506.00;;;5.50
9985;BMP180;16737;50.932;6.780;2023-02-28T08:39:37;101533.00;;;5.90
9985;BMP180;16737;50.932;6.780;2023-02-28T08:42:04;101530.00;;;5.90
9985;BMP180;16737;50.932;6.780;2023-02-28T08:44:33;101504.00;;;6.00
9985;BMP180;16737;50.932;6.780;2023-02-28T08:46:59;101536.00;;;6.10
9985;BMP180;16737;50.932;6.780;2023-02-28T08:49:26;101547.00;;;6.20
9985;BMP180;16737;50.932;6.780;2023-02-28T08:51:54;101532.00;;;6.30
9985;BMP180;16737;50.932;6.780;2023-02-28T08:54:22;101541.00;;;6.40
9985;BMP180;16737;50.932;6.780;2023-02-28T08:56:50;101538.00;;;6.40
9985;BMP180;16737;50.932;6.780;2023-02-28T08:59:17;101527.00;;;6.50
9985;BMP180;16737;50.932;6.780;2023-02-28T09:01:45;101541.00;;;6.60
9985;BMP180;16737;50.932;6.780;2023-02-28T09:04:12;101545.00;;;6.60
9985;BMP180;16737;50.932;6.780;2023-02-28T09:06:39;101540.00;;;6.70
9985;BMP180;16737;50.932;6.780;2023-02-28T09:09:06;101535.00;;;6.90
9985;BMP180;16737;50.932;6.780;2023-02-28T09:11:33;101543.00;;;7.00
9985;BMP180;16737;50.932;6.780;2023-02-28T09:14:01;101534.00;;;7.10
9985;BMP180;16737;50.932;6.780;2023-02-28T09:16:30;101535.00;;;7.20
9985;BMP180;16737;50.932;6.780;2023-02-28T09:18:58;101525.00;;;7.30
9985;BMP180;16737;50.932;6.780;2023-02-28T09:21:26;101539.00;;;7.30
9985;BMP180;16737;50.932;6.780;2023-02-28T09:23:53;101506.00;;;7.40
9985;BMP180;16737;50.932;6.780;2023-02-28T09:26:24;101538.00;;;7.40
9985;BMP180;16737;50.932;6.780;2023-02-28T09:28:52;101537.00;;;7.50
9985;BMP180;16737;50.932;6.780;2023-02-28T09:31:24;101530.00;;;7.60
9985;BMP180;16737;50.932;6.780;2023-02-28T09:33:54;101531.00;;;7.60
9985;BMP180;16737;50.932;6.780;2023-02-28T09:36:23;101525.00;;;7.70
9985;BMP180;16737;50.932;6.780;2023-02-28T09:38:50;101528.00;;;7.70
9985;BMP180;16737;50.932;6.780;2023-02-28T09:41:21;101529.00;;;7.70
9985;BMP180;16737;50.932;6.780;2023-02-28T09:43:53;101539.00;;;7.80
9985;BMP180;16737;50.932;6.780;2023-02-28T09:46:31;101533.00;;;7.80
9985;BMP180;16737;50.932;6.780;2023-02-28T09:49:02;101543.00;;;7.90
9985;BMP180;16737;50.932;6.780;2023-02-28T09:51:46;101534.00;;;7.90
9985;BMP180;16737;50.932;6.780;2023-02-28T09:54:18;101546.00;;;8.10
9985;BMP180;16737;50.932;6.780;2023-02-28T09:56:50;101547.00;;;8.10
9985;BMP180;16737;50.932;6.780;2023-02-28T09:59:41;101542.00;;;8.20
9985;BMP180;16737;50.932;6.780;2023-02-28T10:02:36;101541.00;;;8.20
9985;BMP180;16737;50.932;6.780;2023-02-28T10:05:10;101545.00;;;8.30
9985;BMP180;16737;50.932;6.780;2023-02-28T10:07:56;101549.00;;;8.30
9985;BMP180;16737;50.932;6.780;2023-02-28T10:10:34;101552.00;;;8.40
9985;BMP180;16737;50.932;6.780;2023-02-28T10:13:15;101528.00;;;8.50
9985;BMP180;16737;50.932;6.780;2023-02-28T10:15:46;101532.00;;;8.60
9985;BMP180;16737;50.932;6.780;2023-02-28T10:18:21;101537.00;;;8.70
9985;BMP180;16737;50.932;6.780;2023-02-28T10:20:50;101542.00;;;8.70
9985;BMP180;16737;50.932;6.780;2023-02-28T10:23:24;101543.00;;;8.80
9985;BMP180;16737;50.932;6.780;2023-02-28T10:25:57;101541.00;;;8.80
9985;BMP180;16737;50.932;6.780;2023-02-28T10:28:32;101536.00;;;8.90
9985;BMP180;16737;50.932;6.780;2023-02-28T10:30:59;101533.00;;;8.90
9985;BMP180;16737;50.932;6.780;2023-02-28T10:33:31;101535.00;;;9.00
9985;BMP180;16737;50.932;6.780;2023-02-28T10:36:00;101528.00;;;9.00
9985;BMP180;16737;50.932;6.780;2023-02-28T10:38:35;101537.00;;;9.10
9985;BMP180;16737;50.932;6.780;2023-02-28T10:41:07;101546.00;;;9.20
9985;BMP180;16737;50.932;6.780;2023-02-28T10:43:35;101540.00;;;9.30
9985;BMP180;16737;50.932;6.780;2023-02-28T10:46:11;101545.00;;;9.30
9985;BMP180;16737;50.932;6.780;2023-02-28T10:48:44;101519.00;;;9.40
9985;BMP180;16737;50.932;6.780;2023-02-28T10:51:16;101532.00;;;9.50
9985;BMP180;16737;50.932;6.780;2023-02-28T10:53:51;101526.00;;;9.60
9985;BMP180;16737;50.932;6.780;2023-02-28T10:56:20;101533.00;;;9.60
9985;BMP180;16737;50.932;6.780;2023-02-28T10:58:52;101528.00;;;9.60
9985;BMP180;16737;50.932;6.780;2023-02-28T11:01:23;101536.00;;;9.60
9985;BMP180;16737;50.932;6.780;2023-02-28T11:03:52;101513.00;;;9.70
9985;BMP180;16737;50.932;6.780;2023-02-28T11:06:21;101507.00;;;9.70
9985;BMP180;16737;50.932;6.780;2023-02-28T11:08:53;101513.00;;;9.70
9985;BMP180;16737;50.932;6.780;2023-02-28T11:11:25;101520.00;;;9.70
9985;BMP180;16737;50.932;6.780;2023-02-28T11:13:56;101511.00;;;9.80
9985;BMP180;16737;50.932;6.780;2023-02-28T11:16:33;101499.00;;;9.80
9985;BMP180;16737;50.932;6.780;2023-02-28T11:19:04;101515.00;;;9.80
9985;BMP180;16737;50.932;6.780;2023-02-28T11:21:36;101453.00;;;9.90
9985;BMP180;16737;50.932;6.780;2023-02-28T11:24:21;101512.00;;;9.90
9985;BMP180;16737;50.932;6.780;2023-02-28T11:26:49;101514.00;;;10.00
9985;BMP180;16737;50.932;6.780;2023-02-28T11:29:21;101510.00;;;10.10
9985;BMP180;16737;50.932;6.780;2023-02-28T11:32:13;101514.00;;;10.10
9985;BMP180;16737;50.932;6.780;2023-02-28T11:34:43;101520.00;;;10.20
9985;BMP180;16737;50.932;6.780;2023-02-28T11:37:14;101517.00;;;10.20
9985;BMP180;16737;50.932;6.780;2023-02-28T11:39:43;101502.00;;;10.20
9985;BMP180;16737;50.932;6.780;2023-02-28T11:42:36;101513.00;;;10.10
9985;BMP180;16737;50.932;6.780;2023-02-28T11:45:21;101517.00;;;10.10
9985;BMP180;16737;50.932;6.780;2023-02-28T11:47:59;101512.00;;;10.10
9985;BMP180;16737;50.932;6.780;2023-02-28T11:50:51;101514.00;;;10.20
9985;BMP180;16737;50.932;6.780;2023-02-28T11:53:35;101513.00;;;10.30
9985;BMP180;16737;50.932;6.780;2023-02-28T11:56:15;101518.00;;;10.40
9985;BMP180;16737;50.932;6.780;2023-02-28T11:58:55;101514.00;;;10.50
9985;BMP180;16737;50.932;6.780;2023-02-28T12:01:41;101518.00;;;10.50
9985;BMP180;16737;50.932;6.780;2023-02-28T12:04:25;101516.00;;;10.50
9985;BMP180;16737;50.932;6.780;2023-02-28T12:07:00;101505.00;;;10.50
9985;BMP180;16737;50.932;6.780;2023-02-28T12:09:47;101504.00;;;10.50
9985;BMP180;16737;50.932;6.780;2023-02-28T12:12:31;101513.00;;;10.50
9985;BMP180;16737;50.932;6.780;2023-02-28T12:18:35;101508.00;;;10.50
9985;BMP180;16737;50.932;6.780;2023-02-28T12:21:15;101511.00;;;10.50
9985;BMP180;16737;50.932;6.780;2023-02-28T12:24:11;101512.00;;;10.50
9985;BMP180;16737;50.932;6.780;2023-02-28T12:26:45;101500.00;;;10.50
9985;BMP180;16737;50.932;6.780;2023-02-28T12:29:19;101506.00;;;10.50
9985;BMP180;16737;50.932;6.780;2023-02-28T12:31:54;101497.00;;;10.50
9985;BMP180;16737;50.932;6.780;2023-02-28T12:34:30;101488.00;;;10.50
9985;BMP180;16737;50.932;6.780;2023-02-28T12:37:04;101480.00;;;10.50
9985;BMP180;16737;50.932;6.780;2023-02-28T12:39:38;101481.00;;;10.50
9985;BMP180;16737;50.932;6.780;2023-02-28T12:42:24;101484.00;;;10.50
9985;BMP180;16737;50.932;6.780;2023-02-28T12:45:01;101476.00;;;10.60
9985;BMP180;16737;50.932;6.780;2023-02-28T12:47:28;101468.00;;;10.60
9985;BMP180;16737;50.932;6.780;2023-02-28T12:50:02;101487.00;;;10.60
9985;BMP180;16737;50.932;6.780;2023-02-28T12:52:43;101474.00;;;10.60
9985;BMP180;16737;50.932;6.780;2023-02-28T12:55:21;101464.00;;;10.60
9985;BMP180;16737;50.932;6.780;2023-02-28T12:57:59;101465.00;;;10.60
9985;BMP180;16737;50.932;6.780;2023-02-28T13:00:36;101460.00;;;10.60
9985;BMP180;16737;50.932;6.780;2023-02-28T13:03:36;101455.00;;;10.60
9985;BMP180;16737;50.932;6.780;2023-02-28T13:06:38;101468.00;;;10.60
9985;BMP180;16737;50.932;6.780;2023-02-28T13:09:13;101451.00;;;10.60
9985;BMP180;16737;50.932;6.780;2023-02-28T13:11:45;101447.00;;;10.80
9985;BMP180;16737;50.932;6.780;2023-02-28T13:14:25;101379.00;;;10.80
9985;BMP180;16737;50.932;6.780;2023-02-28T13:17:10;101446.00;;;10.90
9985;BMP180;16737;50.932;6.780;2023-02-28T13:19:41;101444.00;;;11.00
9985;BMP180;16737;50.932;6.780;2023-02-28T13:22:18;101449.00;;;11.10
9985;BMP180;16737;50.932;6.780;2023-02-28T13:24:49;101432.00;;;11.10
9985;BMP180;16737;50.932;6.780;2023-02-28T13:27:34;101454.00;;;11.20
9985;BMP180;16737;50.932;6.780;2023-02-28T13:33:33;101440.00;;;11.50
9985;BMP180;16737;50.932;6.780;2023-02-28T13:36:26;101437.00;;;11.50
9985;BMP180;16737;50.932;6.780;2023-02-28T13:38:56;101450.00;;;11.60
9985;BMP180;16737;50.932;6.780;2023-02-28T13:41:46;101443.00;;;11.50
9985;BMP180;16737;50.932;6.780;2023-02-28T13:44:17;101429.00;;;11.60
9985;BMP180;16737;50.932;6.780;2023-02-28T13:47:24;101441.00;;;11.60
9985;BMP180;16737;50.932;6.780;2023-02-28T13:50:19;101436.00;;;11.60
9985;BMP180;16737;50.932;6.780;2023-02-28T13:53:00;101438.00;;;11.60
9985;BMP180;16737;50.932;6.780;2023-02-28T13:55:37;101427.00;;;11.70
9985;BMP180;16737;50.932;6.780;2023-02-28T13:58:25;101427.00;;;11.70
9985;BMP180;16737;50.932;6.780;2023-02-28T14:01:12;101419.00;;;11.80
9985;BMP180;16737;50.932;6.780;2023-02-28T14:07:21;101423.00;;;11.80
9985;BMP180;16737;50.932;6.780;2023-02-28T14:10:00;101432.00;;;11.80
9985;BMP180;16737;50.932;6.780;2023-02-28T14:13:10;101385.00;;;11.90
9985;BMP180;16737;50.932;6.780;2023-02-28T14:15:46;101408.00;;;11.90
9985;BMP180;16737;50.932;6.780;2023-02-28T14:18:30;101420.00;;;11.90
9985;BMP180;16737;50.932;6.780;2023-02-28T14:21:08;101385.00;;;12.00
9985;BMP180;16737;50.932;6.780;2023-02-28T14:24:21;101382.00;;;12.00
9985;BMP180;16737;50.932;6.780;2023-02-28T14:30:40;101409.00;;;12.00
9985;BMP180;16737;50.932;6.780;2023-02-28T14:33:27;101417.00;;;12.00
9985;BMP180;16737;50.932;6.780;2023-02-28T14:36:16;101376.00;;;12.00
9985;BMP180;16737;50.932;6.780;2023-02-28T14:38:50;101403.00;;;12.10
9985;BMP180;16737;50.932;6.780;2023-02-28T14:41:31;101413.00;;;12.00
9985;BMP180;16737;50.932;6.780;2023-02-28T14:44:03;101398.00;;;12.10
9985;BMP180;16737;50.932;6.780;2023-02-28T14:46:41;101392.00;;;12.00
9985;BMP180;16737;50.932;6.780;2023-02-28T14:49:18;101409.00;;;12.00
9985;BMP180;16737;50.932;6.780;2023-02-28T14:51:47;101403.00;;;12.00
9985;BMP180;16737;50.932;6.780;2023-02-28T14:54:25;101402.00;;;11.90
9985;BMP180;16737;50.932;6.780;2023-02-28T14:56:52;101403.00;;;11.90
9985;BMP180;16737;50.932;6.780;2023-02-28T14:59:29;101401.00;;;11.80
9985;BMP180;16737;50.932;6.780;2023-02-28T15:02:18;101403.00;;;11.70
9985;BMP180;16737;50.932;6.780;2023-02-28T15:04:54;101378.00;;;11.80
9985;BMP180;16737;50.932;6.780;2023-02-28T15:07:22;101399.00;;;11.70
9985;BMP180;16737;50.932;6.780;2023-02-28T15:10:15;101385.00;;;11.70